Time;durP1;ratioP1;P1;durP2;ratioP2;P2;SDS_P1;SDS_P2;PMS_P1;PMS_P2;Temp;Humidity;BMP_temperature;BMP_pressure;BME280_temperature;BME280_humidity;BME280_pressure;Samples;Min_cycle;Max_cycle;Signal;HPM_P1;HPM_P2
2021/03/08 00:00:57;;;;;;;28.43;16.90;;;;;;;-2.08;77.51;96440.94;4883845;29;20079;-81
2021/03/08 00:03:24;;;;;;;27.97;16.47;;;;;;;-2.12;77.19;96442.84;4867395;29;20517;-81
2021/03/08 00:05:50;;;;;;;29.43;17.97;;;;;;;-2.02;76.60;96438.06;4871066;29;20052;-81
2021/03/08 00:08:16;;;;;;;27.07;16.23;;;;;;;-2.09;76.43;96439.28;4874162;29;20504;-81
2021/03/08 00:10:41;;;;;;;27.90;16.77;;;;;;;-2.11;77.09;96444.53;4869372;29;20044;-81
2021/03/08 00:13:07;;;;;;;28.27;16.77;;;;;;;-2.13;77.21;96441.19;4884937;29;20040;-81
2021/03/08 00:15:33;;;;;;;26.63;16.47;;;;;;;-2.25;77.20;96452.09;4892019;29;20028;-81
2021/03/08 00:17:59;;;;;;;30.63;17.17;;;;;;;-2.31;78.00;96453.22;4891618;29;20465;-81
2021/03/08 00:20:27;;;;;;;24.77;16.33;;;;;;;-2.22;77.97;96452.75;4887022;29;20443;-81
2021/03/08 00:22:55;;;;;;;27.60;16.63;;;;;;;-2.20;77.26;96450.94;4892143;29;20468;-81
2021/03/08 00:25:23;;;;;;;24.13;15.90;;;;;;;-2.30;77.14;96449.75;4872719;29;20461;-81
2021/03/08 00:27:49;;;;;;;27.63;17.57;;;;;;;-2.29;78.05;96458.31;4889452;29;20472;-81
2021/03/08 00:30:15;;;;;;;24.27;15.77;;;;;;;-2.36;77.80;96455.19;4887721;29;20540;-81
2021/03/08 00:32:42;;;;;;;26.20;16.97;;;;;;;-2.27;77.63;96453.91;4873929;29;21022;-81
2021/03/08 00:35:09;;;;;;;28.40;17.13;;;;;;;-2.32;78.05;96459.28;4888322;29;20465;-81
2021/03/08 00:37:35;;;;;;;27.00;16.53;;;;;;;-2.31;78.30;96460.09;4886938;29;20504;-81
2021/03/08 00:40:15;;;;;;;28.93;16.80;;;;;;;-2.41;77.87;96460.56;4875619;29;20464;-81
2021/03/08 00:42:42;;;;;;;27.90;16.60;;;;;;;-2.47;77.74;96467.75;4886578;29;20528;-81
2021/03/08 00:45:17;;;;;;;27.90;16.37;;;;;;;-2.43;77.57;96458.97;4874260;29;20465;-81
2021/03/08 00:47:45;;;;;;;25.83;17.20;;;;;;;-2.43;78.80;96462.38;4900278;29;21040;-81
2021/03/08 00:50:18;;;;;;;25.77;16.07;;;;;;;-2.48;77.87;96460.91;4869907;29;21159;-82
2021/03/08 00:52:44;;;;;;;28.53;16.57;;;;;;;-2.51;78.12;96458.53;4894750;29;21008;-81
2021/03/08 00:55:12;;;;;;;44.90;21.37;;;;;;;-2.55;78.63;96450.09;4905011;29;20441;-81
2021/03/08 00:57:39;;;;;;;44.17;23.67;;;;;;;-2.62;78.48;96449.56;4876208;29;20822;-81
2021/03/08 01:00:08;;;;;;;37.03;19.52;;;;;;;-2.91;79.92;96457.84;4893062;29;20076;-80
2021/03/08 01:02:38;;;;;;;27.95;18.70;;;;;;;-3.53;81.74;96458.94;4899971;29;20119;-82
2021/03/08 01:05:08;;;;;;;29.05;16.88;;;;;;;-3.24;82.08;96455.91;4883382;29;20146;-81
2021/03/08 01:07:35;;;;;;;28.38;16.30;;;;;;;-3.08;80.19;96454.31;4885206;29;20036;-82
2021/03/08 01:10:05;;;;;;;28.50;17.17;;;;;;;-3.18;81.10;96445.34;4898011;29;20030;-81
2021/03/08 01:12:31;;;;;;;31.70;17.35;;;;;;;-3.10;81.29;96442.41;4879536;29;20028;-82
2021/03/08 01:14:57;;;;;;;30.43;16.70;;;;;;;-3.09;80.84;96444.06;4892133;29;20041;-81
2021/03/08 01:17:22;;;;;;;29.33;17.00;;;;;;;-3.22;80.45;96446.41;4897480;29;20032;-81
2021/03/08 01:19:50;;;;;;;28.03;17.27;;;;;;;-3.15;80.56;96437.50;4897771;29;20040;-81
2021/03/08 01:22:16;;;;;;;28.40;16.98;;;;;;;-3.04;80.43;96436.16;4892432;29;20024;-82
2021/03/08 01:24:41;;;;;;;26.20;16.97;;;;;;;-3.00;79.92;96428.22;4883009;29;20494;-82
2021/03/08 01:27:07;;;;;;;29.97;15.37;;;;;;;-2.95;79.99;96433.13;4895092;29;20036;-81
2021/03/08 01:29:33;;;;;;;30.17;16.83;;;;;;;-3.16;79.69;96437.53;4898521;29;20052;-82
2021/03/08 01:31:58;;;;;;;27.40;16.00;;;;;;;-3.20;80.00;96436.03;4881191;29;20025;-82
2021/03/08 01:34:24;;;;;;;25.70;15.73;;;;;;;-3.20;79.66;96436.84;4910848;29;20043;-81
2021/03/08 01:36:50;;;;;;;29.10;16.60;;;;;;;-3.08;79.90;96436.28;4895148;29;20047;-81
2021/03/08 01:39:15;;;;;;;24.33;15.67;;;;;;;-3.40;80.40;96429.22;4885956;29;20580;-81
2021/03/08 01:41:41;;;;;;;27.90;16.27;;;;;;;-3.44;81.21;96431.09;4912278;29;20028;-81
2021/03/08 01:44:07;;;;;;;27.13;15.50;;;;;;;-3.41;81.08;96430.97;4886143;29;20040;-81
2021/03/08 01:46:32;;;;;;;26.50;14.97;;;;;;;-3.48;80.82;96439.03;4888351;29;20630;-81
2021/03/08 01:48:58;;;;;;;25.50;15.83;;;;;;;-3.40;80.53;96424.91;4900659;29;20027;-81
2021/03/08 01:51:26;;;;;;;27.00;14.63;;;;;;;-3.46;80.28;96426.91;4887721;29;20017;-81
2021/03/08 01:53:52;;;;;;;26.40;15.07;;;;;;;-3.48;80.29;96426.16;4882675;29;20040;-82
2021/03/08 01:56:18;;;;;;;24.63;14.88;;;;;;;-3.57;81.03;96422.25;4897914;29;20042;-81
2021/03/08 01:58:44;;;;;;;25.27;15.63;;;;;;;-3.49;81.34;96430.44;4883471;29;20371;-81
2021/03/08 02:01:10;;;;;;;27.93;16.27;;;;;;;-3.52;80.88;96429.75;4874617;29;20467;-81
2021/03/08 02:03:35;;;;;;;29.70;16.73;;;;;;;-3.66;81.63;96422.66;4886836;29;20036;-81
2021/03/08 02:06:01;;;;;;;23.93;14.87;;;;;;;-3.52;81.67;96427.19;4883280;29;20558;-81
2021/03/08 02:08:27;;;;;;;28.23;16.17;;;;;;;-3.51;81.06;96421.16;4886337;29;20041;-80
2021/03/08 02:10:53;;;;;;;22.70;15.10;;;;;;;-3.58;81.14;96424.00;4885431;29;20671;-81
2021/03/08 02:13:33;;;;;;;28.23;15.47;;;;;;;-3.54;81.25;96421.28;4871680;29;20036;-81
2021/03/08 02:16:17;;;;;;;25.98;14.95;;;;;;;-3.59;80.40;96424.91;4884381;29;20643;-81
2021/03/08 02:18:57;;;;;;;27.38;15.38;;;;;;;-3.87;82.97;96429.59;4895140;29;20036;-82
2021/03/08 02:21:29;;;;;;;26.70;15.38;;;;;;;-3.83;83.53;96423.41;4906605;29;20051;-81
2021/03/08 02:24:32;;;;;;;26.30;15.93;;;;;;;-3.83;82.87;96431.13;4895505;29;20095;-79
2021/03/08 02:27:03;;;;;;;26.83;16.02;;;;;;;-3.78;82.42;96421.47;4889036;29;20122;-81
2021/03/08 02:29:47;;;;;;;26.00;14.95;;;;;;;-3.78;81.93;96416.34;4883444;29;20048;-81
2021/03/08 02:32:15;;;;;;;24.05;14.55;;;;;;;-3.82;81.80;96425.94;4884415;29;20063;-81
2021/03/08 02:34:51;;;;;;;25.67;15.23;;;;;;;-3.97;82.55;96418.88;4879660;29;20031;-81
2021/03/08 02:37:20;;;;;;;24.83;14.70;;;;;;;-3.98;83.41;96418.94;4880022;29;20041;-81
2021/03/08 02:39:52;;;;;;;23.13;14.40;;;;;;;-3.96;83.70;96417.13;4883385;29;20037;-81
2021/03/08 02:42:23;;;;;;;22.20;13.88;;;;;;;-3.93;83.05;96411.88;4854557;29;20092;-81
2021/03/08 02:44:51;;;;;;;21.75;12.40;;;;;;;-3.99;83.25;96406.97;4872954;29;20036;-80
2021/03/08 02:47:19;;;;;;;20.60;12.70;;;;;;;-3.90;83.28;96404.03;4882196;29;20033;-81
2021/03/08 02:49:48;;;;;;;21.65;12.93;;;;;;;-3.92;83.00;96410.97;4902195;29;20059;-81
2021/03/08 02:52:16;;;;;;;20.63;12.88;;;;;;;-4.07;83.00;96410.72;4889450;29;20037;-81
2021/03/08 02:54:48;;;;;;;25.77;14.10;;;;;;;-4.00;83.02;96406.16;4891818;29;20024;-81
2021/03/08 02:57:17;;;;;;;23.20;13.48;;;;;;;-4.04;82.94;96404.63;4882177;29;20044;-81
2021/03/08 03:00:00;;;;;;;22.85;13.25;;;;;;;-3.99;82.58;96399.28;4878947;29;20024;-80
2021/03/08 03:02:26;;;;;;;23.83;13.75;;;;;;;-4.09;83.03;96403.97;4890983;29;20056;-81
2021/03/08 03:04:52;;;;;;;22.60;13.03;;;;;;;-4.14;83.16;96409.31;4885330;29;20071;-81
2021/03/08 03:07:20;;;;;;;21.05;13.10;;;;;;;-4.09;82.54;96399.69;4904660;29;20457;-81
2021/03/08 03:09:47;;;;;;;22.33;13.05;;;;;;;-4.11;82.49;96411.75;4874050;29;20212;-81
2021/03/08 03:12:15;;;;;;;21.55;12.80;;;;;;;-4.23;83.21;96422.53;4882807;29;20391;-81
2021/03/08 03:14:43;;;;;;;22.05;13.68;;;;;;;-4.15;83.61;96415.38;4887082;29;20048;-81
2021/03/08 03:17:11;;;;;;;20.30;12.70;;;;;;;-4.18;83.39;96418.06;4871720;29;20047;-81
2021/03/08 03:19:49;;;;;;;22.55;13.60;;;;;;;-4.27;83.83;96418.44;4882431;29;20024;-81
2021/03/08 03:22:15;;;;;;;23.08;13.13;;;;;;;-4.26;83.65;96425.22;4885580;29;20035;-81
2021/03/08 03:24:43;;;;;;;20.23;13.18;;;;;;;-4.25;83.78;96421.78;4887984;29;20032;-81
2021/03/08 03:27:08;;;;;;;21.35;12.90;;;;;;;-4.17;83.58;96421.47;4871227;29;20046;-81
2021/03/08 03:29:44;;;;;;;20.63;12.33;;;;;;;-4.20;82.83;96424.97;4881031;29;20025;-81
2021/03/08 03:32:12;;;;;;;23.05;12.98;;;;;;;-4.35;83.94;96431.59;4896888;29;20040;-81
2021/03/08 03:34:38;;;;;;;23.02;14.15;;;;;;;-4.41;83.90;96421.59;4883712;29;20036;-81
2021/03/08 03:37:04;;;;;;;21.80;13.07;;;;;;;-4.34;83.77;96424.72;4887320;29;20039;-81
2021/03/08 03:39:30;;;;;;;22.95;13.05;;;;;;;-4.30;84.12;96423.69;4880788;29;20213;-79
2021/03/08 03:41:56;;;;;;;20.60;12.50;;;;;;;-4.38;83.43;96429.16;4896236;29;20451;-80
2021/03/08 03:44:24;;;;;;;21.33;13.00;;;;;;;-4.45;83.97;96437.19;4881920;29;20552;-81
2021/03/08 03:46:50;;;;;;;23.35;13.68;;;;;;;-4.36;83.94;96436.78;4870065;29;20043;-81
2021/03/08 03:49:17;;;;;;;21.07;12.77;;;;;;;-4.38;82.59;96438.59;4880568;29;20080;-81
2021/03/08 03:51:43;;;;;;;21.48;11.90;;;;;;;-4.36;82.35;96441.91;4880779;29;20032;-81
2021/03/08 03:54:09;;;;;;;21.20;12.70;;;;;;;-4.48;82.78;96453.53;4865419;29;20457;-81
2021/03/08 03:56:43;;;;;;;22.63;12.70;;;;;;;-4.53;83.34;96460.59;4866622;29;20465;-79
2021/03/08 03:59:18;;;;;;;22.00;13.80;;;;;;;-4.63;84.02;96464.41;4871841;29;20520;-81
2021/03/08 04:01:53;;;;;;;25.35;13.25;;;;;;;-4.68;84.10;96464.59;4889799;29;20076;-81
2021/03/08 04:04:37;;;;;;;21.48;12.68;;;;;;;-4.60;83.67;96469.44;4895879;29;20382;-81
2021/03/08 04:07:04;;;;;;;;;;;;;;;-4.60;83.65;96469.44;4870249;29;20033;-81
2021/03/08 04:09:30;;;;;;;21.63;12.25;;;;;;;-4.66;83.36;96467.97;4903320;29;19922;-81
2021/03/08 04:11:59;;;;;;;20.20;12.05;;;;;;;-4.68;82.96;96469.75;4884016;29;20036;-81
2021/03/08 04:14:27;;;;;;;23.92;13.15;;;;;;;-4.66;83.81;96467.97;4906070;29;20028;-81
2021/03/08 04:16:56;;;;;;;23.42;13.27;;;;;;;-4.68;83.20;96479.16;4888855;29;20034;-81
2021/03/08 04:19:32;;;;;;;22.52;12.93;;;;;;;-4.88;83.41;96485.06;4884087;29;20020;-81
2021/03/08 04:22:01;;;;;;;22.95;13.23;;;;;;;-4.80;84.10;96481.31;4888641;29;20059;-81
2021/03/08 04:24:30;;;;;;;23.23;12.98;;;;;;;-4.76;83.34;96482.88;4872324;29;20465;-81
2021/03/08 04:26:59;;;;;;;23.02;13.23;;;;;;;-4.87;82.43;96479.03;4893543;29;20036;-81
2021/03/08 04:29:24;;;;;;;27.63;13.85;;;;;;;-4.90;83.32;96484.28;4887753;29;20104;-81
2021/03/08 04:31:50;;;;;;;25.87;14.33;;;;;;;-4.76;83.24;96482.06;4876515;29;20060;-81
2021/03/08 04:34:18;;;;;;;24.77;14.57;;;;;;;-4.79;84.15;96477.03;4895163;29;20024;-81
2021/03/08 04:36:44;;;;;;;26.20;15.07;;;;;;;-4.72;83.55;96475.06;4890404;29;20036;-81
2021/03/08 04:39:11;;;;;;;28.83;15.80;;;;;;;-4.72;83.50;96468.19;4872351;29;20044;-82
2021/03/08 04:41:37;;;;;;;27.33;16.55;;;;;;;-4.67;83.29;96468.84;4899786;29;20402;-81
2021/03/08 04:44:06;;;;;;;24.77;15.70;;;;;;;-4.80;82.71;96483.03;4872599;29;20787;-81
2021/03/08 04:46:33;;;;;;;25.00;14.23;;;;;;;-4.92;83.68;96480.97;4890764;29;20056;-81
2021/03/08 04:49:05;;;;;;;23.30;14.93;;;;;;;-4.85;83.40;96474.69;4884001;29;20059;-82
2021/03/08 04:51:32;;;;;;;24.10;14.00;;;;;;;-4.80;83.03;96475.34;4869801;29;20040;-82
2021/03/08 04:54:01;;;;;;;27.85;15.93;;;;;;;-4.84;82.86;96479.75;4889583;29;20032;-81
2021/03/08 04:56:29;;;;;;;23.35;14.73;;;;;;;-4.82;82.85;96480.53;4866782;29;20044;-81
2021/03/08 04:58:55;;;;;;;24.75;13.93;;;;;;;-4.80;82.64;96485.59;4869993;29;20012;-82
2021/03/08 05:01:23;;;;;;;23.17;14.53;;;;;;;-4.77;82.49;96483.75;4904979;29;20047;-81
2021/03/08 05:03:51;;;;;;;27.25;14.55;;;;;;;-4.74;82.30;96485.38;4890079;29;20021;-81
2021/03/08 05:06:17;;;;;;;31.35;15.30;;;;;;;-4.73;82.44;96481.91;4881734;29;20044;-81
2021/03/08 05:08:47;;;;;;;25.80;15.30;;;;;;;-4.72;81.95;96491.28;4870782;29;20502;-81
2021/03/08 05:11:13;;;;;;;24.40;14.18;;;;;;;-4.70;81.83;96491.22;4907749;29;20036;-81
2021/03/08 05:13:40;;;;;;;20.90;12.73;;;;;;;-4.72;81.41;96495.59;4903654;29;20036;-81
2021/03/08 05:16:08;;;;;;;25.98;15.15;;;;;;;-4.77;81.72;96488.06;4866729;29;20116;-81
2021/03/08 05:18:35;;;;;;;25.55;14.60;;;;;;;-4.75;81.15;96493.97;4874090;29;20725;-81
2021/03/08 05:21:02;;;;;;;24.83;13.40;;;;;;;-4.77;81.51;96475.22;4887220;29;20021;-81
2021/03/08 05:23:29;;;;;;;23.60;14.07;;;;;;;-4.77;81.23;96482.91;4892426;29;20451;-81
2021/03/08 05:25:56;;;;;;;22.02;13.13;;;;;;;-4.84;81.21;96495.16;4876765;29;20028;-81
2021/03/08 05:28:22;;;;;;;26.30;14.70;;;;;;;-4.88;80.99;96497.91;4876334;29;20055;-81
2021/03/08 05:30:52;;;;;;;21.90;13.25;;;;;;;-5.12;82.04;96497.94;4884417;29;20512;-81
2021/03/08 05:33:29;;;;;;;24.60;13.63;;;;;;;-5.13;81.69;96508.25;4901456;29;20068;-81
2021/03/08 05:36:01;;;;;;;22.08;13.63;;;;;;;-5.24;82.00;96511.22;4896712;29;20402;-82
2021/03/08 05:38:30;;;;;;;29.80;15.77;;;;;;;-5.41;83.31;96505.88;4875483;29;20439;-81
2021/03/08 05:41:32;;;;;;;32.95;18.05;;;;;;;-5.45;84.50;96505.13;4875788;29;20435;-81
2021/03/08 05:44:04;;;;;;;28.55;15.82;;;;;;;-5.27;84.59;96504.44;4867242;29;20032;-81
2021/03/08 05:46:39;;;;;;;27.30;15.80;;;;;;;-5.28;84.67;96502.78;4886918;29;20040;-81
2021/03/08 05:49:23;;;;;;;30.58;17.40;;;;;;;-5.22;83.57;96497.44;4886041;29;20563;-81
2021/03/08 05:52:26;;;;;;;33.33;19.33;;;;;;;-5.19;83.74;96491.38;4897478;29;20037;-81
2021/03/08 05:55:31;;;;;;;32.25;20.67;;;;;;;-5.30;84.26;96493.47;4867999;29;20116;-81
2021/03/08 05:58:01;;;;;;;31.48;17.20;;;;;;;-5.37;83.91;96495.44;4880043;29;20673;-81
2021/03/08 06:01:00;;;;;;;26.75;15.82;;;;;;;-5.16;83.73;96488.69;4904000;29;20044;-81
2021/03/08 06:03:55;;;;;;;25.70;16.05;;;;;;;-5.05;82.35;96498.53;4871448;29;20040;-81
2021/03/08 06:06:52;;;;;;;28.40;15.57;;;;;;;-5.02;80.87;96498.44;4874771;29;20044;-81
2021/03/08 06:09:28;;;;;;;26.00;15.60;;;;;;;-4.65;80.43;96502.16;4886638;29;20035;-80
2021/03/08 06:11:54;;;;;;;29.38;16.48;;;;;;;-4.35;78.75;96500.09;4882719;29;20036;-80
2021/03/08 06:14:32;;;;;;;31.50;17.37;;;;;;;-4.25;78.51;96506.53;4886864;29;20062;-80
2021/03/08 06:17:01;;;;;;;29.83;16.02;;;;;;;-3.93;77.08;96496.63;4885657;29;20499;-80
2021/03/08 06:19:29;;;;;;;27.65;15.80;;;;;;;-3.59;75.70;96493.47;4882254;29;20037;-81
2021/03/08 06:21:56;;;;;;;29.38;14.80;;;;;;;-3.33;73.79;96495.72;4880674;29;20019;-81
2021/03/08 06:24:23;;;;;;;48.83;25.95;;;;;;;-3.08;73.51;96503.19;4889942;29;20073;-81
2021/03/08 06:26:50;;;;;;;64.97;33.45;;;;;;;-2.94;73.50;96502.56;4876137;29;20040;-80
2021/03/08 06:29:16;;;;;;;38.95;21.85;;;;;;;-2.94;73.01;96501.72;4899730;29;20033;-81
2021/03/08 06:31:48;;;;;;;36.00;21.37;;;;;;;-2.91;73.72;96506.72;4888795;29;20052;-81
2021/03/08 06:34:14;;;;;;;24.17;14.45;;;;;;;-2.58;72.65;96508.63;4891769;29;20469;-81
2021/03/08 06:36:45;;;;;;;29.90;17.67;;;;;;;-2.24;71.38;96500.13;4888433;29;20111;-81
2021/03/08 06:39:11;;;;;;;31.00;18.17;;;;;;;-2.55;72.59;96518.78;4889838;29;20072;-80
2021/03/08 06:41:41;;;;;;;30.95;19.77;;;;;;;-2.20;72.37;96511.97;4894170;29;20501;-81
2021/03/08 06:44:08;;;;;;;35.03;21.55;;;;;;;-1.88;71.80;96504.38;4869556;29;20047;-81
2021/03/08 06:46:34;;;;;;;35.63;21.05;;;;;;;-1.95;71.15;96509.81;4883187;29;20116;-80
2021/03/08 06:49:17;;;;;;;32.40;21.90;;;;;;;-2.31;73.14;96529.66;4881587;29;20059;-81
2021/03/08 06:52:13;;;;;;;31.05;19.70;;;;;;;-3.29;74.07;96547.84;4863858;29;20041;-80
2021/03/08 06:54:41;;;;;;;21.48;12.32;;;;;;;-2.98;71.33;96534.47;4882644;29;20045;-80
2021/03/08 06:57:21;;;;;;;27.88;16.67;;;;;;;-2.04;67.98;96533.50;4872200;29;20123;-80
2021/03/08 07:00:00;;;;;;;22.20;13.00;;;;;;;-1.45;67.42;96536.56;4904740;29;20040;-81
2021/03/08 07:02:40;;;;;;;23.92;13.05;;;;;;;-0.82;65.81;96536.69;4893166;29;20115;-81
2021/03/08 07:05:08;;;;;;;22.90;15.35;;;;;;;-0.40;64.65;96535.28;4868931;29;20033;-81
2021/03/08 07:07:52;;;;;;;20.23;12.83;;;;;;;-0.32;65.41;96538.25;4873998;29;20020;-81
2021/03/08 07:10:39;;;;;;;18.40;12.33;;;;;;;0.21;63.74;96539.56;4884794;29;20456;-81
2021/03/08 07:13:11;;;;;;;22.40;13.97;;;;;;;0.46;61.92;96544.16;4890341;29;20044;-82
2021/03/08 07:15:57;;;;;;;27.25;17.25;;;;;;;0.70;62.10;96541.91;4866935;29;20508;-81
2021/03/08 07:18:24;;;;;;;21.50;14.17;;;;;;;0.31;61.93;96546.81;4882955;29;20068;-82
2021/03/08 07:21:12;;;;;;;22.63;15.27;;;;;;;-0.11;65.63;96551.72;4876502;29;20492;-81
2021/03/08 07:23:40;;;;;;;23.33;15.20;;;;;;;-0.06;65.21;96567.00;4886063;29;20480;-81
2021/03/08 07:26:27;;;;;;;23.07;14.10;;;;;;;0.80;63.74;96562.03;4884782;29;20475;-81
2021/03/08 07:29:11;;;;;;;25.53;14.80;;;;;;;1.79;60.11;96555.09;4888295;29;20866;-81
2021/03/08 07:31:42;;;;;;;23.43;14.93;;;;;;;2.38;58.04;96552.97;4882029;29;20476;-81
2021/03/08 07:34:09;;;;;;;21.77;12.40;;;;;;;2.20;58.68;96559.38;4872965;29;20469;-82
2021/03/08 07:37:06;;;;;;;20.53;12.47;;;;;;;3.24;56.16;96554.97;4884836;29;20819;-82
2021/03/08 07:39:33;;;;;;;24.67;14.80;;;;;;;2.89;56.30;96550.44;4884997;29;20475;-82
2021/03/08 07:42:14;;;;;;;37.13;25.20;;;;;;;2.69;56.53;96558.75;4911318;29;20477;-82
2021/03/08 07:44:51;;;;;;;23.17;15.97;;;;;;;3.32;55.07;96557.88;4898183;29;20463;-80
2021/03/08 07:47:20;;;;;;;19.93;14.40;;;;;;;3.89;53.27;96557.31;4890403;29;20468;-81
2021/03/08 07:49:47;;;;;;;18.83;13.67;;;;;;;4.05;53.35;96562.22;4892105;29;20545;-82
2021/03/08 07:52:19;;;;;;;19.43;13.87;;;;;;;4.79;51.38;96557.63;4885005;29;20480;-83
2021/03/08 07:54:54;;;;;;;16.93;12.27;;;;;;;4.81;50.92;96560.13;4874720;29;20473;-81
2021/03/08 07:57:21;;;;;;;16.20;12.00;;;;;;;4.15;52.98;96568.41;4887122;29;21612;-81
2021/03/08 07:59:52;;;;;;;18.50;12.43;;;;;;;4.75;53.19;96563.19;4874294;29;20476;-82
2021/03/08 08:02:20;;;;;;;19.40;12.10;;;;;;;5.07;51.37;96561.59;4872024;29;20514;-81
2021/03/08 08:04:46;;;;;;;17.87;13.27;;;;;;;5.31;50.83;96568.47;4885654;29;20887;-81
2021/03/08 08:07:13;;;;;;;20.57;13.97;;;;;;;5.63;49.65;96565.94;4884237;29;20604;-80
2021/03/08 08:09:47;;;;;;;19.40;12.10;;;;;;;6.42;46.64;96552.72;4878073;29;20057;-82
2021/03/08 08:12:16;;;;;;;19.40;12.30;;;;;;;6.62;47.28;96557.13;4899269;29;20479;-81
2021/03/08 08:14:44;;;;;;;15.57;11.63;;;;;;;5.95;47.98;96558.22;4885308;29;20051;-82
2021/03/08 08:17:15;;;;;;;17.10;11.10;;;;;;;4.85;50.83;96564.97;4893739;29;20137;-81
2021/03/08 08:19:46;;;;;;;15.83;11.30;;;;;;;3.90;53.32;96578.94;4869816;29;20512;-82
2021/03/08 08:22:23;;;;;;;19.23;13.20;;;;;;;4.04;54.00;96570.16;4885062;29;20481;-82
2021/03/08 08:24:54;;;;;;;19.27;11.93;;;;;;;2.94;56.33;96573.50;4883848;29;20560;-82
2021/03/08 08:27:21;;;;;;;17.90;12.00;;;;;;;3.00;57.25;96558.31;4890823;29;21286;-81
2021/03/08 08:29:49;;;;;;;16.87;12.50;;;;;;;3.75;54.68;96562.66;4867517;29;21021;-82
2021/03/08 08:32:15;;;;;;;18.13;11.43;;;;;;;3.23;56.32;96556.75;4882366;29;20803;-80
2021/03/08 08:34:46;;;;;;;13.83;9.77;;;;;;;4.64;53.58;96559.59;4895297;29;20859;-81
2021/03/08 08:37:23;;;;;;;15.80;10.87;;;;;;;4.30;53.33;96563.06;4869958;29;20830;-81
2021/03/08 08:39:52;;;;;;;16.43;10.63;;;;;;;4.18;54.24;96567.38;4887900;29;20998;-81
2021/03/08 08:42:34;;;;;;;20.03;10.50;;;;;;;4.03;53.73;96564.13;4873004;29;20471;-81
2021/03/08 08:45:27;;;;;;;13.87;9.53;;;;;;;4.17;54.02;96565.72;4882320;29;20470;-81
2021/03/08 08:48:04;;;;;;;15.20;9.87;;;;;;;4.38;53.67;96566.75;4889140;29;21003;-83
2021/03/08 08:50:46;;;;;;;15.27;9.83;;;;;;;4.51;52.15;96564.06;4890023;29;20457;-82
2021/03/08 08:53:12;;;;;;;12.67;8.57;;;;;;;4.51;52.76;96558.88;4893150;29;20476;-81
2021/03/08 08:55:42;;;;;;;12.97;9.17;;;;;;;5.17;50.88;96567.75;4895241;29;20508;-82
2021/03/08 08:58:29;;;;;;;11.17;7.40;;;;;;;5.47;48.81;96555.06;4891867;29;20040;-82
2021/03/08 09:04:00;;;;;;;16.80;7.30;;;;;;;5.81;47.95;96556.69;4896399;29;20521;-82
2021/03/08 09:06:42;;;;;;;12.70;8.30;;;;;;;4.30;50.57;96560.47;4907393;29;20521;-81
2021/03/08 09:09:09;;;;;;;12.50;7.70;;;;;;;5.20;49.91;96556.28;4885816;29;20464;-81
2021/03/08 09:11:53;;;;;;;12.27;8.23;;;;;;;3.73;53.28;96570.56;4869080;29;20467;-81
2021/03/08 09:14:27;;;;;;;13.15;7.85;;;;;;;4.37;51.65;96567.69;4883334;29;20479;-81
2021/03/08 09:17:15;;;;;;;13.97;8.37;;;;;;;5.15;50.55;96561.00;4885376;29;20222;-80
2021/03/08 09:20:04;;;;;;;12.93;7.20;;;;;;;5.58;47.18;96560.28;4880424;29;20124;-81
2021/03/08 09:22:35;;;;;;;11.70;7.67;;;;;;;5.36;49.74;96567.16;4890427;29;20488;-81
2021/03/08 09:25:13;;;;;;;11.57;7.67;;;;;;;6.48;46.14;96555.66;4870294;29;20565;-81
2021/03/08 09:27:43;;;;;;;12.03;7.43;;;;;;;5.71;48.43;96570.59;4887108;29;20402;-81
2021/03/08 09:30:18;;;;;;;13.77;7.53;;;;;;;6.45;46.28;96562.94;4900850;29;20553;-80
2021/03/08 09:33:01;;;;;;;12.00;7.47;;;;;;;6.68;46.34;96561.84;4889752;29;20032;-80
2021/03/08 09:35:37;;;;;;;8.40;5.82;;;;;;;5.92;47.32;96574.09;4885460;29;20040;-80
2021/03/08 09:38:07;;;;;;;13.43;6.77;;;;;;;7.17;44.92;96565.56;4869699;29;20495;-80
2021/03/08 09:40:37;;;;;;;10.10;6.37;;;;;;;7.19;43.90;96561.06;4872227;29;20028;-80
2021/03/08 09:43:21;;;;;;;10.43;5.70;;;;;;;6.97;42.87;96561.19;4869041;29;20064;-80
2021/03/08 09:45:57;;;;;;;;;;;;;;;7.41;42.33;96564.44;4870739;29;20036;-80
2021/03/08 09:48:24;;;;;;;10.87;5.93;;;;;;;7.20;43.52;96560.09;4888498;29;20278;-81
2021/03/08 09:51:02;;;;;;;8.70;5.30;;;;;;;5.56;46.00;96567.38;4890044;29;20031;-81
2021/03/08 09:53:32;;;;;;;12.77;6.10;;;;;;;6.16;45.34;96566.09;4874779;29;20623;-81
2021/03/08 09:56:20;;;;;;;11.10;5.90;;;;;;;7.55;42.84;96562.31;4884617;29;20040;-81
2021/03/08 09:58:45;;;;;;;12.33;6.40;;;;;;;6.41;43.80;96571.97;4885562;29;20041;-79
2021/03/08 10:01:22;;;;;;;10.07;6.17;;;;;;;6.50;45.51;96563.34;4885638;29;20025;-80
2021/03/08 10:03:49;;;;;;;11.43;6.07;;;;;;;8.34;40.18;96563.28;4888212;29;20055;-80
2021/03/08 10:06:30;;;;;;;11.73;6.30;;;;;;;8.25;41.08;96560.53;4871372;29;20055;-81
2021/03/08 10:08:57;;;;;;;10.00;4.93;;;;;;;8.29;40.32;96563.72;4890644;29;20075;-82
2021/03/08 10:11:25;;;;;;;10.10;6.00;;;;;;;7.38;41.36;96557.72;4873317;29;20092;-81
2021/03/08 10:13:52;;;;;;;9.73;5.13;;;;;;;8.78;38.63;96558.47;4889676;29;20036;-81
2021/03/08 10:16:28;;;;;;;9.83;5.03;;;;;;;8.95;39.11;96552.50;4893769;29;20028;-81
2021/03/08 10:19:08;;;;;;;7.53;4.47;;;;;;;8.26;39.88;96567.44;4908818;29;20032;-81
2021/03/08 10:21:43;;;;;;;8.40;5.03;;;;;;;8.14;40.58;96563.28;4888851;29;20068;-80
2021/03/08 10:24:09;;;;;;;8.23;5.20;;;;;;;7.50;40.88;96563.66;4904137;29;20529;-82
2021/03/08 10:26:45;;;;;;;8.97;4.97;;;;;;;7.77;41.78;96566.50;4880735;29;20455;-82
2021/03/08 10:29:14;;;;;;;9.63;5.80;;;;;;;8.41;39.88;96554.78;4888426;29;20171;-81
2021/03/08 10:31:40;;;;;;;17.63;6.43;;;;;;;8.17;39.26;96563.00;4885695;29;20033;-82
2021/03/08 10:34:14;;;;;;;8.20;4.13;;;;;;;7.20;39.85;96562.69;4880287;29;20403;-81
2021/03/08 10:36:42;;;;;;;7.97;5.00;;;;;;;7.47;40.88;96553.47;4906386;29;20119;-81
2021/03/08 10:39:10;;;;;;;10.23;4.37;;;;;;;8.20;39.70;96554.88;4887073;29;20033;-81
2021/03/08 10:41:42;;;;;;;8.10;4.10;;;;;;;9.41;37.26;96545.63;4894699;29;20036;-81
2021/03/08 10:44:09;;;;;;;7.93;4.30;;;;;;;9.53;36.94;96547.09;4880359;29;20108;-83
2021/03/08 10:46:39;;;;;;;7.87;4.27;;;;;;;9.40;36.10;96543.97;4889667;29;20028;-82
2021/03/08 10:49:08;;;;;;;11.23;5.93;;;;;;;9.24;36.56;96541.13;4882932;29;20051;-81
2021/03/08 10:51:36;;;;;;;53.37;35.73;;;;;;;9.65;35.34;96540.66;4872219;29;20557;-81
2021/03/08 10:54:07;;;;;;;6.27;4.30;;;;;;;8.70;37.79;96549.53;4869983;29;20028;-82
2021/03/08 10:56:36;;;;;;;8.23;4.87;;;;;;;8.12;39.48;96554.75;4880109;29;20507;-81
2021/03/08 10:59:20;;;;;;;8.07;4.53;;;;;;;9.04;37.44;96537.72;4895387;29;20036;-81
2021/03/08 11:02:05;;;;;;;10.55;4.60;;;;;;;10.03;35.24;96533.56;4870012;29;20036;-82
2021/03/08 11:04:32;;;;;;;9.80;4.60;;;;;;;8.96;37.99;96538.44;4875288;29;20037;-81
2021/03/08 11:07:01;;;;;;;8.77;4.83;;;;;;;9.05;37.43;96539.38;4892138;29;20064;-80
2021/03/08 11:09:39;;;;;;;6.83;4.17;;;;;;;9.66;36.10;96537.09;4885276;29;20444;-81
2021/03/08 11:12:16;;;;;;;10.57;5.13;;;;;;;8.86;36.59;96545.50;4884230;29;20063;-80
2021/03/08 11:14:58;;;;;;;9.37;4.37;;;;;;;8.91;37.43;96543.28;4884861;29;20115;-80
2021/03/08 11:17:43;;;;;;;9.33;5.00;;;;;;;9.50;36.10;96536.88;4890667;29;20053;-81
2021/03/08 11:20:22;;;;;;;8.20;5.33;;;;;;;9.94;35.01;96541.50;4896915;29;20036;-81
2021/03/08 11:23:01;;;;;;;8.07;4.70;;;;;;;10.59;34.40;96534.25;4875179;29;20036;-81
2021/03/08 11:25:44;;;;;;;8.90;5.10;;;;;;;8.32;39.09;96554.75;4882121;29;20037;-80
2021/03/08 11:28:12;;;;;;;7.43;4.53;;;;;;;9.12;37.02;96554.44;4887032;29;20040;-81
2021/03/08 11:30:46;;;;;;;8.80;5.03;;;;;;;9.10;37.07;96548.47;4883482;29;20107;-81
2021/03/08 11:33:14;;;;;;;8.80;4.93;;;;;;;9.24;37.15;96546.38;4887414;29;20807;-81
2021/03/08 11:35:48;;;;;;;8.67;4.97;;;;;;;9.66;35.66;96544.97;4883863;29;20109;-81
2021/03/08 11:38:15;;;;;;;8.35;5.18;;;;;;;8.92;37.32;96542.28;4887227;29;20032;-81
2021/03/08 11:40:46;;;;;;;8.23;5.00;;;;;;;10.05;36.25;96536.03;4883856;29;20041;-80
2021/03/08 11:43:18;;;;;;;8.00;5.10;;;;;;;8.91;36.69;96538.84;4871874;29;20037;-80
2021/03/08 11:45:45;;;;;;;9.57;4.97;;;;;;;8.47;37.26;96532.44;4882398;29;20077;-81
2021/03/08 11:48:25;;;;;;;7.43;4.80;;;;;;;8.64;37.96;96536.13;4888663;29;20039;-81